sensor_id;sensor_type;location;lat;lon;timestamp;P1;durP1;ratioP1;P2;durP2;ratioP2
80576;SDS011;69937;52.420;10.538;2024-03-02T00:02:55;25.52;;;10.10;;
80576;SDS011;69937;52.420;10.538;2024-03-02T00:07:56;20.00;;;10.43;;
80576;SDS011;69937;52.420;10.538;2024-03-02T00:12:58;17.15;;;9.73;;
80576;SDS011;69937;52.420;10.538;2024-03-02T00:17:58;15.20;;;8.98;;
80576;SDS011;69937;52.420;10.538;2024-03-02T00:23:03;19.23;;;10.32;;
80576;SDS011;69937;52.420;10.538;2024-03-02T00:28:04;20.80;;;10.35;;
80576;SDS011;69937;52.420;10.538;2024-03-02T00:33:07;16.77;;;8.95;;
80576;SDS011;69937;52.420;10.538;2024-03-02T00:38:08;20.85;;;9.70;;
80576;SDS011;69937;52.420;10.538;2024-03-02T00:43:11;15.55;;;9.18;;
80576;SDS011;69937;52.420;10.538;2024-03-02T00:48:38;17.67;;;9.75;;
80576;SDS011;69937;52.420;10.538;2024-03-02T00:53:47;17.60;;;9.85;;
80576;SDS011;69937;52.420;10.538;2024-03-02T00:58:49;17.98;;;10.32;;
80576;SDS011;69937;52.420;10.538;2024-03-02T01:03:50;23.45;;;11.02;;
80576;SDS011;69937;52.420;10.538;2024-03-02T01:08:51;18.65;;;10.60;;
80576;SDS011;69937;52.420;10.538;2024-03-02T01:13:51;18.98;;;10.30;;
80576;SDS011;69937;52.420;10.538;2024-03-02T01:18:52;19.13;;;9.70;;
80576;SDS011;69937;52.420;10.538;2024-03-02T01:23:53;19.92;;;10.63;;
80576;SDS011;69937;52.420;10.538;2024-03-02T01:28:53;16.70;;;9.80;;
80576;SDS011;69937;52.420;10.538;2024-03-02T01:33:54;16.70;;;10.80;;
80576;SDS011;69937;52.420;10.538;2024-03-02T01:38:54;15.45;;;9.45;;
80576;SDS011;69937;52.420;10.538;2024-03-02T01:43:55;15.05;;;9.23;;
80576;SDS011;69937;52.420;10.538;2024-03-02T01:48:55;17.45;;;9.13;;
80576;SDS011;69937;52.420;10.538;2024-03-02T01:53:56;17.45;;;9.40;;
80576;SDS011;69937;52.420;10.538;2024-03-02T01:58:56;15.18;;;9.48;;
80576;SDS011;69937;52.420;10.538;2024-03-02T02:03:57;18.23;;;9.00;;
80576;SDS011;69937;52.420;10.538;2024-03-02T02:08:57;15.30;;;9.55;;
80576;SDS011;69937;52.420;10.538;2024-03-02T02:13:58;17.25;;;10.70;;
80576;SDS011;69937;52.420;10.538;2024-03-02T02:18:59;15.80;;;9.52;;
80576;SDS011;69937;52.420;10.538;2024-03-02T02:23:59;17.33;;;9.55;;
80576;SDS011;69937;52.420;10.538;2024-03-02T02:29:01;17.98;;;9.35;;
80576;SDS011;69937;52.420;10.538;2024-03-02T02:34:02;14.70;;;8.63;;
80576;SDS011;69937;52.420;10.538;2024-03-02T02:39:03;13.68;;;9.23;;
80576;SDS011;69937;52.420;10.538;2024-03-02T02:44:04;16.38;;;8.57;;
80576;SDS011;69937;52.420;10.538;2024-03-02T02:49:05;16.80;;;9.13;;
80576;SDS011;69937;52.420;10.538;2024-03-02T02:54:06;17.38;;;10.82;;
80576;SDS011;69937;52.420;10.538;2024-03-02T02:59:06;16.17;;;9.20;;
80576;SDS011;69937;52.420;10.538;2024-03-02T03:04:07;15.10;;;8.73;;
80576;SDS011;69937;52.420;10.538;2024-03-02T03:09:07;19.88;;;9.82;;
80576;SDS011;69937;52.420;10.538;2024-03-02T03:14:11;14.93;;;8.95;;
80576;SDS011;69937;52.420;10.538;2024-03-02T03:19:11;14.68;;;9.30;;
80576;SDS011;69937;52.420;10.538;2024-03-02T03:24:12;14.45;;;9.10;;
80576;SDS011;69937;52.420;10.538;2024-03-02T03:29:12;19.33;;;9.20;;
80576;SDS011;69937;52.420;10.538;2024-03-02T03:34:13;18.70;;;9.15;;
80576;SDS011;69937;52.420;10.538;2024-03-02T03:39:15;18.45;;;11.10;;
80576;SDS011;69937;52.420;10.538;2024-03-02T03:44:17;16.70;;;9.77;;
80576;SDS011;69937;52.420;10.538;2024-03-02T03:49:18;19.38;;;10.50;;
80576;SDS011;69937;52.420;10.538;2024-03-02T03:54:18;16.98;;;10.82;;
80576;SDS011;69937;52.420;10.538;2024-03-02T03:59:19;19.70;;;11.73;;
80576;SDS011;69937;52.420;10.538;2024-03-02T04:04:19;22.58;;;10.48;;
80576;SDS011;69937;52.420;10.538;2024-03-02T04:09:20;17.25;;;10.50;;
80576;SDS011;69937;52.420;10.538;2024-03-02T04:14:20;19.00;;;10.98;;
80576;SDS011;69937;52.420;10.538;2024-03-02T04:19:21;15.02;;;9.55;;
80576;SDS011;69937;52.420;10.538;2024-03-02T04:24:22;20.45;;;11.75;;
80576;SDS011;69937;52.420;10.538;2024-03-02T04:29:22;23.52;;;10.50;;
80576;SDS011;69937;52.420;10.538;2024-03-02T04:34:22;17.80;;;10.70;;
80576;SDS011;69937;52.420;10.538;2024-03-02T04:39:23;18.88;;;11.32;;
80576;SDS011;69937;52.420;10.538;2024-03-02T04:44:24;18.45;;;9.23;;
80576;SDS011;69937;52.420;10.538;2024-03-02T04:49:25;23.40;;;10.95;;
80576;SDS011;69937;52.420;10.538;2024-03-02T04:54:25;19.83;;;11.43;;
80576;SDS011;69937;52.420;10.538;2024-03-02T04:59:26;18.23;;;11.05;;
80576;SDS011;69937;52.420;10.538;2024-03-02T05:04:27;18.10;;;10.80;;
80576;SDS011;69937;52.420;10.538;2024-03-02T05:09:27;18.42;;;10.07;;
80576;SDS011;69937;52.420;10.538;2024-03-02T05:14:28;18.63;;;11.70;;
80576;SDS011;69937;52.420;10.538;2024-03-02T05:19:28;15.10;;;10.10;;
80576;SDS011;69937;52.420;10.538;2024-03-02T05:24:29;20.77;;;11.25;;
80576;SDS011;69937;52.420;10.538;2024-03-02T05:29:30;17.83;;;10.63;;
80576;SDS011;69937;52.420;10.538;2024-03-02T05:34:30;20.73;;;10.85;;
80576;SDS011;69937;52.420;10.538;2024-03-02T05:39:32;20.45;;;11.95;;
80576;SDS011;69937;52.420;10.538;2024-03-02T05:44:33;16.70;;;11.30;;
80576;SDS011;69937;52.420;10.538;2024-03-02T05:49:34;17.27;;;10.32;;
80576;SDS011;69937;52.420;10.538;2024-03-02T05:54:35;19.48;;;10.63;;
80576;SDS011;69937;52.420;10.538;2024-03-02T05:59:35;18.55;;;10.93;;
80576;SDS011;69937;52.420;10.538;2024-03-02T06:04:36;15.10;;;9.10;;
80576;SDS011;69937;52.420;10.538;2024-03-02T06:09:36;24.40;;;11.82;;
80576;SDS011;69937;52.420;10.538;2024-03-02T06:14:37;19.10;;;11.90;;
80576;SDS011;69937;52.420;10.538;2024-03-02T06:19:38;18.83;;;11.30;;
80576;SDS011;69937;52.420;10.538;2024-03-02T06:24:39;16.45;;;9.32;;
80576;SDS011;69937;52.420;10.538;2024-03-02T06:29:39;20.77;;;12.07;;
80576;SDS011;69937;52.420;10.538;2024-03-02T06:34:40;24.92;;;12.48;;
80576;SDS011;69937;52.420;10.538;2024-03-02T06:39:40;19.90;;;12.35;;
80576;SDS011;69937;52.420;10.538;2024-03-02T06:44:41;23.00;;;11.90;;
80576;SDS011;69937;52.420;10.538;2024-03-02T06:49:41;23.15;;;10.90;;
80576;SDS011;69937;52.420;10.538;2024-03-02T06:54:42;19.17;;;11.88;;
80576;SDS011;69937;52.420;10.538;2024-03-02T06:59:42;16.60;;;9.93;;
80576;SDS011;69937;52.420;10.538;2024-03-02T07:04:43;17.50;;;11.30;;
80576;SDS011;69937;52.420;10.538;2024-03-02T07:09:45;18.17;;;10.98;;
80576;SDS011;69937;52.420;10.538;2024-03-02T07:14:45;18.90;;;12.15;;
80576;SDS011;69937;52.420;10.538;2024-03-02T07:20:07;20.20;;;9.80;;
80576;SDS011;69937;52.420;10.538;2024-03-02T07:25:08;20.48;;;12.00;;
80576;SDS011;69937;52.420;10.538;2024-03-02T07:30:09;21.35;;;11.90;;
80576;SDS011;69937;52.420;10.538;2024-03-02T07:35:12;20.25;;;12.30;;
80576;SDS011;69937;52.420;10.538;2024-03-02T07:40:13;26.15;;;11.27;;
80576;SDS011;69937;52.420;10.538;2024-03-02T07:45:14;21.25;;;11.80;;
80576;SDS011;69937;52.420;10.538;2024-03-02T07:50:15;17.52;;;10.23;;
80576;SDS011;69937;52.420;10.538;2024-03-02T07:55:15;20.88;;;10.35;;
80576;SDS011;69937;52.420;10.538;2024-03-02T08:00:16;16.33;;;11.00;;
80576;SDS011;69937;52.420;10.538;2024-03-02T08:05:17;17.80;;;9.60;;
80576;SDS011;69937;52.420;10.538;2024-03-02T08:10:21;17.98;;;10.13;;
80576;SDS011;69937;52.420;10.538;2024-03-02T08:15:21;17.73;;;9.45;;
80576;SDS011;69937;52.420;10.538;2024-03-02T08:20:22;17.08;;;10.43;;
80576;SDS011;69937;52.420;10.538;2024-03-02T08:25:23;16.20;;;8.27;;
80576;SDS011;69937;52.420;10.538;2024-03-02T08:30:23;13.05;;;8.80;;
80576;SDS011;69937;52.420;10.538;2024-03-02T08:35:24;14.85;;;8.68;;
80576;SDS011;69937;52.420;10.538;2024-03-02T08:40:24;19.15;;;9.32;;
80576;SDS011;69937;52.420;10.538;2024-03-02T08:45:25;19.00;;;9.98;;
80576;SDS011;69937;52.420;10.538;2024-03-02T08:50:25;17.60;;;9.68;;
80576;SDS011;69937;52.420;10.538;2024-03-02T08:55:26;16.83;;;9.55;;
80576;SDS011;69937;52.420;10.538;2024-03-02T09:00:26;16.33;;;8.90;;
80576;SDS011;69937;52.420;10.538;2024-03-02T09:05:27;15.10;;;8.77;;
80576;SDS011;69937;52.420;10.538;2024-03-02T09:10:28;16.77;;;8.82;;
80576;SDS011;69937;52.420;10.538;2024-03-02T09:15:28;16.95;;;8.73;;
80576;SDS011;69937;52.420;10.538;2024-03-02T09:20:29;15.90;;;8.65;;
80576;SDS011;69937;52.420;10.538;2024-03-02T09:25:29;17.85;;;9.07;;
80576;SDS011;69937;52.420;10.538;2024-03-02T09:30:30;15.50;;;8.00;;
80576;SDS011;69937;52.420;10.538;2024-03-02T09:35:31;18.83;;;8.48;;
80576;SDS011;69937;52.420;10.538;2024-03-02T09:40:32;15.15;;;8.73;;
80576;SDS011;69937;52.420;10.538;2024-03-02T09:45:33;16.63;;;8.32;;
80576;SDS011;69937;52.420;10.538;2024-03-02T09:50:34;15.77;;;8.60;;
80576;SDS011;69937;52.420;10.538;2024-03-02T09:55:34;16.13;;;8.70;;
80576;SDS011;69937;52.420;10.538;2024-03-02T10:00:35;16.15;;;9.13;;
80576;SDS011;69937;52.420;10.538;2024-03-02T10:05:35;14.95;;;8.27;;
80576;SDS011;69937;52.420;10.538;2024-03-02T10:10:36;16.00;;;8.15;;
80576;SDS011;69937;52.420;10.538;2024-03-02T10:15:41;17.42;;;8.25;;
80576;SDS011;69937;52.420;10.538;2024-03-02T10:20:42;14.48;;;7.70;;
80576;SDS011;69937;52.420;10.538;2024-03-02T10:25:43;13.43;;;6.32;;
80576;SDS011;69937;52.420;10.538;2024-03-02T10:30:53;13.32;;;7.53;;
80576;SDS011;69937;52.420;10.538;2024-03-02T10:35:57;11.93;;;6.47;;
80576;SDS011;69937;52.420;10.538;2024-03-02T10:40:58;11.48;;;6.13;;
80576;SDS011;69937;52.420;10.538;2024-03-02T10:46:00;8.90;;;5.47;;
80576;SDS011;69937;52.420;10.538;2024-03-02T10:51:01;10.75;;;5.53;;
80576;SDS011;69937;52.420;10.538;2024-03-02T10:56:02;8.52;;;4.78;;
80576;SDS011;69937;52.420;10.538;2024-03-02T11:01:07;12.20;;;5.38;;
80576;SDS011;69937;52.420;10.538;2024-03-02T11:06:11;10.52;;;5.85;;
80576;SDS011;69937;52.420;10.538;2024-03-02T11:11:19;13.82;;;5.43;;
80576;SDS011;69937;52.420;10.538;2024-03-02T11:16:32;6.78;;;4.38;;
80576;SDS011;69937;52.420;10.538;2024-03-02T11:21:36;8.95;;;3.75;;
80576;SDS011;69937;52.420;10.538;2024-03-02T11:26:38;7.22;;;4.13;;
80576;SDS011;69937;52.420;10.538;2024-03-02T11:31:57;8.95;;;4.15;;
80576;SDS011;69937;52.420;10.538;2024-03-02T11:37:02;7.88;;;3.75;;
80576;SDS011;69937;52.420;10.538;2024-03-02T11:42:04;7.78;;;4.38;;
80576;SDS011;69937;52.420;10.538;2024-03-02T11:47:08;9.38;;;4.50;;
80576;SDS011;69937;52.420;10.538;2024-03-02T11:52:14;7.72;;;4.28;;
80576;SDS011;69937;52.420;10.538;2024-03-02T11:57:18;12.65;;;4.57;;
80576;SDS011;69937;52.420;10.538;2024-03-02T12:02:21;8.85;;;4.43;;
80576;SDS011;69937;52.420;10.538;2024-03-02T12:07:22;7.10;;;3.90;;
80576;SDS011;69937;52.420;10.538;2024-03-02T12:12:23;8.25;;;4.18;;
80576;SDS011;69937;52.420;10.538;2024-03-02T12:17:24;8.63;;;4.45;;
80576;SDS011;69937;52.420;10.538;2024-03-02T12:22:24;7.28;;;3.78;;
80576;SDS011;69937;52.420;10.538;2024-03-02T12:27:25;6.80;;;3.90;;
80576;SDS011;69937;52.420;10.538;2024-03-02T12:32:26;8.40;;;4.28;;
80576;SDS011;69937;52.420;10.538;2024-03-02T12:37:29;8.45;;;4.55;;
80576;SDS011;69937;52.420;10.538;2024-03-02T12:42:30;7.10;;;3.63;;
80576;SDS011;69937;52.420;10.538;2024-03-02T12:47:31;7.00;;;3.92;;
80576;SDS011;69937;52.420;10.538;2024-03-02T12:52:32;8.25;;;4.45;;
80576;SDS011;69937;52.420;10.538;2024-03-02T13:02:36;7.53;;;3.77;;
80576;SDS011;69937;52.420;10.538;2024-03-02T13:07:39;7.78;;;3.75;;
80576;SDS011;69937;52.420;10.538;2024-03-02T13:12:40;8.32;;;4.10;;
80576;SDS011;69937;52.420;10.538;2024-03-02T13:17:41;9.05;;;4.22;;
80576;SDS011;69937;52.420;10.538;2024-03-02T13:22:45;6.45;;;3.55;;
80576;SDS011;69937;52.420;10.538;2024-03-02T13:27:48;5.95;;;3.42;;
80576;SDS011;69937;52.420;10.538;2024-03-02T13:32:48;7.15;;;3.78;;
80576;SDS011;69937;52.420;10.538;2024-03-02T13:37:49;8.00;;;4.35;;
80576;SDS011;69937;52.420;10.538;2024-03-02T13:42:50;6.43;;;3.42;;
80576;SDS011;69937;52.420;10.538;2024-03-02T13:47:54;7.05;;;3.28;;
80576;SDS011;69937;52.420;10.538;2024-03-02T13:52:57;6.88;;;3.55;;
80576;SDS011;69937;52.420;10.538;2024-03-02T13:57:58;6.43;;;3.13;;
80576;SDS011;69937;52.420;10.538;2024-03-02T14:02:58;7.20;;;3.53;;
80576;SDS011;69937;52.420;10.538;2024-03-02T14:07:59;5.60;;;3.40;;
80576;SDS011;69937;52.420;10.538;2024-03-02T14:13:03;8.70;;;3.05;;
80576;SDS011;69937;52.420;10.538;2024-03-02T14:18:05;5.90;;;2.63;;
80576;SDS011;69937;52.420;10.538;2024-03-02T14:23:06;4.43;;;2.60;;
80576;SDS011;69937;52.420;10.538;2024-03-02T14:28:06;5.10;;;2.47;;
80576;SDS011;69937;52.420;10.538;2024-03-02T14:33:07;5.15;;;2.85;;
80576;SDS011;69937;52.420;10.538;2024-03-02T14:38:08;7.22;;;2.78;;
80576;SDS011;69937;52.420;10.538;2024-03-02T14:43:12;5.28;;;2.70;;
80576;SDS011;69937;52.420;10.538;2024-03-02T14:48:15;3.28;;;1.77;;
80576;SDS011;69937;52.420;10.538;2024-03-02T14:53:27;8.20;;;4.25;;
80576;SDS011;69937;52.420;10.538;2024-03-02T14:58:28;7.32;;;4.70;;
80576;SDS011;69937;52.420;10.538;2024-03-02T15:03:29;6.55;;;3.60;;
80576;SDS011;69937;52.420;10.538;2024-03-02T15:08:29;6.43;;;3.35;;
80576;SDS011;69937;52.420;10.538;2024-03-02T15:13:30;5.85;;;2.88;;
80576;SDS011;69937;52.420;10.538;2024-03-02T15:18:31;5.47;;;3.25;;
80576;SDS011;69937;52.420;10.538;2024-03-02T15:23:31;10.45;;;3.95;;
80576;SDS011;69937;52.420;10.538;2024-03-02T15:28:32;8.90;;;4.43;;
80576;SDS011;69937;52.420;10.538;2024-03-02T15:33:32;8.90;;;4.35;;
80576;SDS011;69937;52.420;10.538;2024-03-02T15:38:33;8.85;;;5.15;;
80576;SDS011;69937;52.420;10.538;2024-03-02T15:43:36;9.05;;;4.70;;
80576;SDS011;69937;52.420;10.538;2024-03-02T15:48:39;9.25;;;4.70;;
80576;SDS011;69937;52.420;10.538;2024-03-02T15:53:39;9.60;;;4.15;;
80576;SDS011;69937;52.420;10.538;2024-03-02T15:58:40;9.73;;;4.78;;
80576;SDS011;69937;52.420;10.538;2024-03-02T16:03:40;10.15;;;5.53;;
80576;SDS011;69937;52.420;10.538;2024-03-02T16:08:41;9.77;;;5.82;;
80576;SDS011;69937;52.420;10.538;2024-03-02T16:13:41;11.23;;;5.88;;
80576;SDS011;69937;52.420;10.538;2024-03-02T16:18:42;12.60;;;6.18;;
80576;SDS011;69937;52.420;10.538;2024-03-02T16:23:42;12.13;;;5.80;;
80576;SDS011;69937;52.420;10.538;2024-03-02T16:28:43;12.38;;;6.25;;
80576;SDS011;69937;52.420;10.538;2024-03-02T16:33:43;15.15;;;7.18;;
80576;SDS011;69937;52.420;10.538;2024-03-02T16:38:44;12.95;;;7.47;;
80576;SDS011;69937;52.420;10.538;2024-03-02T16:43:47;14.85;;;7.32;;
80576;SDS011;69937;52.420;10.538;2024-03-02T16:48:47;15.52;;;7.70;;
80576;SDS011;69937;52.420;10.538;2024-03-02T16:53:48;16.40;;;9.25;;
80576;SDS011;69937;52.420;10.538;2024-03-02T16:58:49;16.85;;;8.80;;
80576;SDS011;69937;52.420;10.538;2024-03-02T17:03:49;18.23;;;8.77;;
80576;SDS011;69937;52.420;10.538;2024-03-02T17:08:50;19.40;;;9.77;;
80576;SDS011;69937;52.420;10.538;2024-03-02T17:13:50;20.10;;;9.30;;
80576;SDS011;69937;52.420;10.538;2024-03-02T17:18:57;16.25;;;8.40;;
80576;SDS011;69937;52.420;10.538;2024-03-02T17:23:57;15.63;;;9.23;;
80576;SDS011;69937;52.420;10.538;2024-03-02T17:28:58;18.85;;;10.57;;
80576;SDS011;69937;52.420;10.538;2024-03-02T17:33:58;17.70;;;9.50;;
80576;SDS011;69937;52.420;10.538;2024-03-02T17:39:00;16.65;;;10.00;;
80576;SDS011;69937;52.420;10.538;2024-03-02T17:44:03;22.02;;;9.57;;
80576;SDS011;69937;52.420;10.538;2024-03-02T17:49:03;20.95;;;10.65;;
80576;SDS011;69937;52.420;10.538;2024-03-02T17:54:04;24.33;;;10.65;;
80576;SDS011;69937;52.420;10.538;2024-03-02T17:59:05;19.17;;;10.38;;
80576;SDS011;69937;52.420;10.538;2024-03-02T18:04:06;17.02;;;10.00;;
80576;SDS011;69937;52.420;10.538;2024-03-02T18:09:06;20.98;;;9.85;;
80576;SDS011;69937;52.420;10.538;2024-03-02T18:14:07;21.65;;;9.77;;
80576;SDS011;69937;52.420;10.538;2024-03-02T18:19:07;18.52;;;9.50;;
80576;SDS011;69937;52.420;10.538;2024-03-02T18:24:08;16.58;;;9.98;;
80576;SDS011;69937;52.420;10.538;2024-03-02T18:29:08;20.95;;;10.30;;
80576;SDS011;69937;52.420;10.538;2024-03-02T18:34:09;20.00;;;11.20;;
80576;SDS011;69937;52.420;10.538;2024-03-02T18:39:10;19.08;;;10.75;;
80576;SDS011;69937;52.420;10.538;2024-03-02T18:44:10;19.80;;;9.35;;
80576;SDS011;69937;52.420;10.538;2024-03-02T18:49:11;19.25;;;9.90;;
80576;SDS011;69937;52.420;10.538;2024-03-02T18:54:11;21.88;;;10.48;;
80576;SDS011;69937;52.420;10.538;2024-03-02T18:59:12;18.73;;;9.85;;
80576;SDS011;69937;52.420;10.538;2024-03-02T19:04:13;19.60;;;9.68;;
80576;SDS011;69937;52.420;10.538;2024-03-02T19:09:13;18.38;;;10.18;;
80576;SDS011;69937;52.420;10.538;2024-03-02T19:14:15;16.63;;;9.73;;
80576;SDS011;69937;52.420;10.538;2024-03-02T19:19:15;19.90;;;10.68;;
80576;SDS011;69937;52.420;10.538;2024-03-02T19:24:16;17.88;;;10.73;;
80576;SDS011;69937;52.420;10.538;2024-03-02T19:29:17;17.70;;;10.27;;
80576;SDS011;69937;52.420;10.538;2024-03-02T19:34:17;20.13;;;9.88;;
80576;SDS011;69937;52.420;10.538;2024-03-02T19:39:22;19.83;;;10.00;;
80576;SDS011;69937;52.420;10.538;2024-03-02T19:44:30;18.88;;;9.68;;
80576;SDS011;69937;52.420;10.538;2024-03-02T19:49:32;18.17;;;9.80;;
80576;SDS011;69937;52.420;10.538;2024-03-02T19:54:33;17.65;;;10.15;;
80576;SDS011;69937;52.420;10.538;2024-03-02T19:59:33;19.10;;;8.65;;
80576;SDS011;69937;52.420;10.538;2024-03-02T20:04:34;16.23;;;9.82;;
80576;SDS011;69937;52.420;10.538;2024-03-02T20:09:34;20.65;;;10.40;;
80576;SDS011;69937;52.420;10.538;2024-03-02T20:14:35;16.70;;;10.43;;
80576;SDS011;69937;52.420;10.538;2024-03-02T20:19:39;17.00;;;8.65;;
80576;SDS011;69937;52.420;10.538;2024-03-02T20:24:39;18.23;;;8.88;;
80576;SDS011;69937;52.420;10.538;2024-03-02T20:29:40;20.67;;;9.45;;
80576;SDS011;69937;52.420;10.538;2024-03-02T20:34:41;15.43;;;9.55;;
80576;SDS011;69937;52.420;10.538;2024-03-02T20:39:41;17.88;;;9.57;;
80576;SDS011;69937;52.420;10.538;2024-03-02T20:44:42;22.08;;;10.57;;
80576;SDS011;69937;52.420;10.538;2024-03-02T20:49:43;17.38;;;9.20;;
80576;SDS011;69937;52.420;10.538;2024-03-02T20:54:43;17.95;;;10.00;;
80576;SDS011;69937;52.420;10.538;2024-03-02T20:59:45;19.90;;;10.13;;
80576;SDS011;69937;52.420;10.538;2024-03-02T21:04:46;16.77;;;8.77;;
80576;SDS011;69937;52.420;10.538;2024-03-02T21:09:48;15.10;;;8.40;;
80576;SDS011;69937;52.420;10.538;2024-03-02T21:14:48;14.35;;;9.18;;
80576;SDS011;69937;52.420;10.538;2024-03-02T21:19:49;15.77;;;9.23;;
80576;SDS011;69937;52.420;10.538;2024-03-02T21:24:49;16.35;;;9.63;;
80576;SDS011;69937;52.420;10.538;2024-03-02T21:29:51;19.83;;;10.90;;
80576;SDS011;69937;52.420;10.538;2024-03-02T21:34:52;18.52;;;9.50;;
80576;SDS011;69937;52.420;10.538;2024-03-02T21:39:52;16.60;;;8.32;;
80576;SDS011;69937;52.420;10.538;2024-03-02T21:44:53;15.43;;;8.40;;
80576;SDS011;69937;52.420;10.538;2024-03-02T21:49:53;13.88;;;9.18;;
80576;SDS011;69937;52.420;10.538;2024-03-02T21:54:54;20.13;;;9.27;;
80576;SDS011;69937;52.420;10.538;2024-03-02T21:59:54;14.52;;;8.43;;
80576;SDS011;69937;52.420;10.538;2024-03-02T22:04:55;14.95;;;10.52;;
80576;SDS011;69937;52.420;10.538;2024-03-02T22:09:55;16.88;;;9.60;;
80576;SDS011;69937;52.420;10.538;2024-03-02T22:14:59;15.73;;;8.65;;
80576;SDS011;69937;52.420;10.538;2024-03-02T22:19:59;14.63;;;9.55;;
80576;SDS011;69937;52.420;10.538;2024-03-02T22:25:01;14.90;;;8.82;;
80576;SDS011;69937;52.420;10.538;2024-03-02T22:30:02;12.63;;;8.27;;
80576;SDS011;69937;52.420;10.538;2024-03-02T22:35:06;19.50;;;9.63;;
80576;SDS011;69937;52.420;10.538;2024-03-02T22:40:07;18.85;;;9.82;;
80576;SDS011;69937;52.420;10.538;2024-03-02T22:45:08;16.20;;;10.80;;
80576;SDS011;69937;52.420;10.538;2024-03-02T22:50:09;19.38;;;10.82;;
80576;SDS011;69937;52.420;10.538;2024-03-02T22:55:10;21.50;;;10.00;;
80576;SDS011;69937;52.420;10.538;2024-03-02T23:00:11;18.48;;;10.65;;
80576;SDS011;69937;52.420;10.538;2024-03-02T23:05:30;22.20;;;10.20;;
80576;SDS011;69937;52.420;10.538;2024-03-02T23:10:30;19.48;;;11.32;;
80576;SDS011;69937;52.420;10.538;2024-03-02T23:15:31;14.20;;;10.05;;
80576;SDS011;69937;52.420;10.538;2024-03-02T23:20:32;19.25;;;11.65;;
80576;SDS011;69937;52.420;10.538;2024-03-02T23:25:33;21.80;;;10.93;;
80576;SDS011;69937;52.420;10.538;2024-03-02T23:30:34;22.23;;;11.13;;
80576;SDS011;69937;52.420;10.538;2024-03-02T23:35:34;21.20;;;11.43;;
80576;SDS011;69937;52.420;10.538;2024-03-02T23:40:35;21.25;;;11.90;;
80576;SDS011;69937;52.420;10.538;2024-03-02T23:45:55;20.23;;;11.05;;
80576;SDS011;69937;52.420;10.538;2024-03-02T23:50:56;22.75;;;10.95;;
80576;SDS011;69937;52.420;10.538;2024-03-02T23:55:57;24.70;;;13.43;;
